createdAt,value
2023-02-05T00:01:31.322Z,5.90
2023-02-05T00:06:33.057Z,5.30
2023-02-05T00:11:34.723Z,6.60
2023-02-05T00:16:37.214Z,7.10
2023-02-05T00:21:38.961Z,6.30
2023-02-05T00:26:41.577Z,5.80
2023-02-05T00:31:43.556Z,5.47
2023-02-05T00:36:45.344Z,5.43
2023-02-05T00:41:47.005Z,5.70
2023-02-05T00:46:48.723Z,5.00
2023-02-05T00:51:50.377Z,4.70
2023-02-05T00:56:52.025Z,4.93
2023-02-05T01:01:53.708Z,5.10
2023-02-05T01:06:55.351Z,5.10
2023-02-05T01:11:57.063Z,4.30
2023-02-05T01:16:58.696Z,4.30
2023-02-05T01:22:00.601Z,4.90
2023-02-05T01:27:02.247Z,5.23
2023-02-05T01:32:04.088Z,4.93
2023-02-05T01:37:05.744Z,4.70
2023-02-05T01:42:15.754Z,4.57
2023-02-05T01:47:17.409Z,4.80
2023-02-05T01:52:19.342Z,5.80
2023-02-05T01:57:23.824Z,4.67
2023-02-05T02:02:26.200Z,4.93
2023-02-05T02:07:27.878Z,4.97
2023-02-05T02:12:33.709Z,4.77
2023-02-05T02:17:39.262Z,4.73
2023-02-05T02:23:12.044Z,4.73
2023-02-05T02:28:26.073Z,4.43
2023-02-05T02:33:47.739Z,5.40
2023-02-05T02:39:08.993Z,5.63
2023-02-05T02:44:21.007Z,5.00
2023-02-05T02:49:32.141Z,5.07
2023-02-05T02:54:39.001Z,4.37
2023-02-05T02:59:42.937Z,4.80
2023-02-05T03:04:51.855Z,5.00
2023-02-05T03:10:11.695Z,5.70
2023-02-05T03:15:13.669Z,5.67
2023-02-05T03:20:24.892Z,5.30
2023-02-05T03:25:28.957Z,5.10
2023-02-05T03:31:06.790Z,4.70
2023-02-05T03:36:29.846Z,4.80
2023-02-05T03:42:05.270Z,4.93
2023-02-05T03:47:37.992Z,4.60
2023-02-05T03:52:45.298Z,4.70
2023-02-05T03:57:56.865Z,4.67
2023-02-05T04:02:58.639Z,4.57
2023-02-05T04:08:00.426Z,5.10
2023-02-05T04:13:02.099Z,5.07
2023-02-05T04:18:03.817Z,4.87
2023-02-05T04:23:05.480Z,4.90
2023-02-05T04:28:07.558Z,5.00
2023-02-05T04:33:09.233Z,4.60
2023-02-05T04:38:10.957Z,5.67
2023-02-05T04:43:12.599Z,5.10
2023-02-05T04:48:14.235Z,4.87
2023-02-05T04:53:15.907Z,4.80
2023-02-05T04:58:18.157Z,5.30
2023-02-05T05:03:19.811Z,4.60
2023-02-05T05:08:21.548Z,5.20
2023-02-05T05:13:23.333Z,4.97
2023-02-05T05:18:24.966Z,5.27
2023-02-05T05:23:26.960Z,5.43
2023-02-05T05:28:28.645Z,4.13
2023-02-05T05:33:30.368Z,4.50
2023-02-05T05:38:32.059Z,5.20
2023-02-05T05:43:48.729Z,6.60
2023-02-05T05:48:55.822Z,5.63
2023-02-05T05:53:57.642Z,5.00
2023-02-05T05:58:59.359Z,6.07
2023-02-05T06:04:03.626Z,5.87
2023-02-05T06:09:05.734Z,8.50
2023-02-05T06:14:07.365Z,6.17
2023-02-05T06:19:09.097Z,6.53
2023-02-05T06:24:10.779Z,5.93
2023-02-05T06:29:12.457Z,4.80
2023-02-05T06:34:14.145Z,6.57
2023-02-05T06:39:15.841Z,5.37
2023-02-05T06:44:17.497Z,5.80
2023-02-05T06:49:19.219Z,8.33
2023-02-05T06:54:21.213Z,6.03
2023-02-05T06:59:22.921Z,5.80
2023-02-05T07:04:24.611Z,6.80
2023-02-05T07:09:26.439Z,8.80
2023-02-05T07:14:28.303Z,6.13
2023-02-05T07:19:29.954Z,6.53
2023-02-05T07:24:31.835Z,7.07
2023-02-05T07:29:33.539Z,8.30
2023-02-05T07:34:35.485Z,7.07
2023-02-05T07:39:37.150Z,7.50
2023-02-05T07:44:38.792Z,8.10
2023-02-05T07:49:40.464Z,12.10
2023-02-05T07:54:42.208Z,9.57
2023-02-05T07:59:43.896Z,8.70
2023-02-05T08:04:45.612Z,10.87
2023-02-05T08:09:47.307Z,10.53
2023-02-05T08:14:49.180Z,10.77
2023-02-05T08:19:51.070Z,12.53
2023-02-05T08:24:52.718Z,17.30
2023-02-05T08:29:54.522Z,19.40
2023-02-05T08:34:56.305Z,18.33
2023-02-05T08:39:58.070Z,20.00
2023-02-05T08:45:00.035Z,14.13
2023-02-05T08:50:03.495Z,13.80
2023-02-05T08:55:05.602Z,12.80
2023-02-05T09:00:08.200Z,10.93
2023-02-05T09:05:10.245Z,11.93
2023-02-05T09:10:13.564Z,12.57
2023-02-05T09:15:15.277Z,11.03
2023-02-05T09:20:17.567Z,11.30
2023-02-05T09:25:19.276Z,10.43
2023-02-05T09:30:20.982Z,10.77
2023-02-05T09:35:22.679Z,11.07
2023-02-05T09:40:29.423Z,11.00
2023-02-05T09:45:39.928Z,10.23
2023-02-05T09:50:42.814Z,10.90
2023-02-05T09:55:46.322Z,11.17
2023-02-05T10:01:01.024Z,9.97
2023-02-05T10:06:22.124Z,10.20
2023-02-05T10:11:46.499Z,10.83
2023-02-05T10:16:57.027Z,10.77
2023-02-05T10:22:28.485Z,9.80
2023-02-05T10:27:46.061Z,11.97
2023-02-05T10:33:18.739Z,11.57
2023-02-05T10:38:24.245Z,12.03
2023-02-05T10:43:40.548Z,10.43
2023-02-05T10:48:49.999Z,8.60
2023-02-05T10:53:52.365Z,9.30
2023-02-05T10:59:01.090Z,10.17
2023-02-05T11:04:10.914Z,11.53
2023-02-05T11:09:25.050Z,13.83
2023-02-05T11:14:37.476Z,13.40
2023-02-05T11:19:39.642Z,31.53
2023-02-05T11:24:41.335Z,12.67
2023-02-05T11:29:43.739Z,13.60
2023-02-05T11:34:45.851Z,11.57
2023-02-05T11:39:53.857Z,11.37
2023-02-05T11:44:58.811Z,10.70
2023-02-05T11:50:01.911Z,11.40
2023-02-05T11:55:05.154Z,10.90
2023-02-05T12:00:09.582Z,8.63
2023-02-05T12:05:23.911Z,8.00
2023-02-05T12:11:01.133Z,8.77
2023-02-05T12:16:14.383Z,7.87
2023-02-05T12:21:27.780Z,8.73
2023-02-05T12:26:42.411Z,11.43
2023-02-05T12:32:08.444Z,12.03
2023-02-05T12:37:27.221Z,11.83
2023-02-05T12:42:33.755Z,11.77
2023-02-05T12:47:47.556Z,10.13
2023-02-05T12:53:01.286Z,11.23
2023-02-05T12:58:05.774Z,9.83
2023-02-05T13:03:30.557Z,9.37
2023-02-05T13:08:49.105Z,10.83
2023-02-05T13:13:56.350Z,9.43
2023-02-05T13:19:13.028Z,9.47
2023-02-05T13:24:43.206Z,10.97
2023-02-05T13:29:51.520Z,11.27
2023-02-05T13:34:55.449Z,12.70
2023-02-05T13:40:21.861Z,12.57
2023-02-05T13:46:00.280Z,12.57
2023-02-05T13:51:21.854Z,16.13
2023-02-05T13:56:52.272Z,16.07
2023-02-05T14:01:57.970Z,11.67
2023-02-05T14:07:04.224Z,12.13
2023-02-05T14:12:09.814Z,10.97
2023-02-05T14:17:32.689Z,12.30
2023-02-05T14:22:43.623Z,10.97
2023-02-05T14:27:50.215Z,13.33
2023-02-05T14:32:51.996Z,13.43
2023-02-05T14:37:58.038Z,13.33
2023-02-05T14:43:16.491Z,12.50
2023-02-05T14:48:29.860Z,11.00
2023-02-05T14:53:32.899Z,11.30
2023-02-05T14:58:44.933Z,8.00
2023-02-05T15:03:46.691Z,10.90
2023-02-05T15:09:01.040Z,10.27
2023-02-05T15:14:41.480Z,9.17
2023-02-05T15:19:52.675Z,9.70
2023-02-05T15:24:56.346Z,11.30
2023-02-05T15:29:58.451Z,9.40
2023-02-05T15:35:07.396Z,10.63
2023-02-05T15:40:27.733Z,9.73
2023-02-05T15:45:34.422Z,7.63
2023-02-05T15:50:49.957Z,8.40
2023-02-05T15:55:51.961Z,7.63
2023-02-05T16:00:56.215Z,7.47
2023-02-05T16:05:57.993Z,9.43
2023-02-05T16:11:05.341Z,7.73
2023-02-05T16:16:19.007Z,6.53
2023-02-05T16:21:30.934Z,7.03
2023-02-05T16:26:46.330Z,7.30
2023-02-05T16:31:48.464Z,10.83
2023-02-05T16:36:52.437Z,9.30
2023-02-05T16:42:09.346Z,10.80
2023-02-05T16:47:19.693Z,9.97
2023-02-05T16:52:33.172Z,13.63
2023-02-05T16:57:38.467Z,11.27
2023-02-05T17:02:42.051Z,15.47
2023-02-05T17:07:43.764Z,16.23
2023-02-05T17:13:01.691Z,18.73
2023-02-05T17:18:18.736Z,13.57
2023-02-05T17:23:20.474Z,13.23
2023-02-05T17:28:27.476Z,14.00
2023-02-05T17:33:29.440Z,14.03
2023-02-05T17:38:31.178Z,19.77
2023-02-05T17:43:32.927Z,31.27
2023-02-05T17:48:34.574Z,13.73
2023-02-05T17:53:36.233Z,10.67
2023-02-05T17:58:37.894Z,9.67
2023-02-05T18:03:39.600Z,10.67
2023-02-05T18:08:42.170Z,10.40
2023-02-05T18:13:43.860Z,11.37
2023-02-05T18:18:45.564Z,11.60
2023-02-05T18:23:50.406Z,17.63
2023-02-05T18:28:52.217Z,13.40
2023-02-05T18:33:54.146Z,12.03
2023-02-05T18:38:57.524Z,13.80
2023-02-05T18:43:59.469Z,13.60
2023-02-05T18:49:01.401Z,13.90
2023-02-05T18:54:06.532Z,15.97
2023-02-05T18:59:12.808Z,14.70
2023-02-05T19:04:15.500Z,11.27
2023-02-05T19:09:17.460Z,15.47
2023-02-05T19:14:20.901Z,16.20
2023-02-05T19:19:25.164Z,16.57
2023-02-05T19:24:27.050Z,15.40
2023-02-05T19:29:28.983Z,13.30
2023-02-05T19:34:30.764Z,16.13
2023-02-05T19:39:32.672Z,15.73
2023-02-05T19:44:34.387Z,25.77
2023-02-05T19:49:36.185Z,21.43
2023-02-05T19:54:37.918Z,19.80
2023-02-05T19:59:39.554Z,19.57
2023-02-05T20:04:42.176Z,17.77
2023-02-05T20:09:43.959Z,19.17
2023-02-05T20:14:45.593Z,17.20
2023-02-05T20:19:47.244Z,14.90
2023-02-05T20:24:48.917Z,17.50
2023-02-05T20:30:09.176Z,19.17
2023-02-05T20:35:10.862Z,18.00
2023-02-05T20:40:12.920Z,19.00
2023-02-05T20:45:14.681Z,19.17
2023-02-05T20:50:16.534Z,14.07
2023-02-05T20:55:18.212Z,13.93
2023-02-05T21:00:21.033Z,15.40
2023-02-05T21:05:22.690Z,15.80
2023-02-05T21:10:24.359Z,15.10
2023-02-05T21:15:26.684Z,13.40
2023-02-05T21:20:28.366Z,13.27
2023-02-05T21:25:30.043Z,11.80
2023-02-05T21:30:31.780Z,11.63
2023-02-05T21:35:37.651Z,11.73
2023-02-05T21:40:39.444Z,10.60
2023-02-05T21:45:41.124Z,10.53
2023-02-05T21:50:42.814Z,10.97
2023-02-05T21:55:44.523Z,11.73
2023-02-05T22:00:46.350Z,11.33
2023-02-05T22:05:48.010Z,11.97
2023-02-05T22:10:49.684Z,11.03
2023-02-05T22:16:08.196Z,11.77
2023-02-05T22:21:18.733Z,11.90
2023-02-05T22:26:24.269Z,9.93
2023-02-05T22:31:28.156Z,8.93
2023-02-05T22:36:32.111Z,10.03
2023-02-05T22:41:36.609Z,11.17
2023-02-05T22:46:41.035Z,11.40
2023-02-05T22:51:43.340Z,12.07
2023-02-05T22:56:45.732Z,10.50
2023-02-05T23:01:47.402Z,12.10
2023-02-05T23:06:49.066Z,20.30
2023-02-05T23:11:50.797Z,22.20
2023-02-05T23:16:52.461Z,18.13
2023-02-05T23:21:54.211Z,15.13
2023-02-05T23:26:55.884Z,13.40
2023-02-05T23:31:57.562Z,14.23
2023-02-05T23:36:59.222Z,13.50
2023-02-05T23:42:01.130Z,13.63
2023-02-05T23:47:02.863Z,13.77
2023-02-05T23:52:04.721Z,12.53
2023-02-05T23:57:06.389Z,13.47
